Česky Dansk Deutsch English Español Suomi Français Magyar Italiano Nederlands norsk Polski Português svenska Türkçe

 

Het Weer

Ufa (Rusland)

19:00, 13 augustus 2016 (GMT)

NWNNE
WE
SWSSE
Home            
Ufa Orenburg / Tsentralny Chelyabinsk-Balandino Perm'/Bolshoe Savino Ekaterinburg Samara Kazan' Ulyanovsk Uralsk Aktjubinsk Kostanay Penza Saratov / Tsentralny Nizhny Novgorod/Strigino Ust'- Kulom Syktyvkar Kotlas Aralskoe More Tot'Ma Volgograd Hanty-Mansijsk Vologda Astrakhan

Om een weerknop op uw website of weblog te plaatsen, copieer onderstaande code en plak die in uw pagina. In het eerste vakje staat HTML-code, in het tweede vakje UBB-code.


Add to Google

Details

Visibility:Greater than 10000 m, 10 km, 32800 ft, 6.2 miles
Clouds:Aufgelockert bewölkt at 4000 ft, 1219 m
Temperature:23°C, 73°F
Gefühlte Temperatur:24°C, 76°F
Dew-point:16°C, 61°F
Atmospheric pressure:1019 hPa, 764.3 mmHg, 30.09 inHg, 1.006 atm
Relative humidity:64.7 %
METAR:UWUU 131900Z 00000MPS 9999 SCT040CB 23/16 Q1019 R14L/060 NOSIG RMK QFE753/1005

Snelkoppelingen

Actuele weersinformatie van de hele wereld. Voeg locaties toe met het plus (+) symbool. Deze snelkoppelingen kunnen worden toegevoegd aan Google.

Lid van de Technetium groep

website free tracking
StatCounter NetStat W3C Validator

18-08-2019 05:57:15
astro.technetium.be money.technetium.be phote.technetium.be tafeltennistafel.technetium.be www.ligfiets.net